createdAt,value
2022-11-22T00:00:00.547Z,7.74
2022-11-22T00:01:00.529Z,7.69
2022-11-22T00:02:00.556Z,7.71
2022-11-22T00:03:00.497Z,7.72
2022-11-22T00:04:00.494Z,7.59
2022-11-22T00:05:00.466Z,7.67
2022-11-22T00:06:00.455Z,7.67
2022-11-22T00:07:00.597Z,7.67
2022-11-22T00:08:00.452Z,7.69
2022-11-22T00:09:00.419Z,7.69
2022-11-22T00:10:00.437Z,7.62
2022-11-22T00:11:00.411Z,7.66
2022-11-22T00:12:00.396Z,7.62
2022-11-22T00:13:00.408Z,7.63
2022-11-22T00:14:00.389Z,7.71
2022-11-22T00:15:00.355Z,7.75
2022-11-22T00:16:00.371Z,7.74
2022-11-22T00:17:00.351Z,7.66
2022-11-22T00:18:00.319Z,7.67
2022-11-22T00:19:00.325Z,7.72
2022-11-22T00:20:00.318Z,7.71
2022-11-22T00:21:00.282Z,7.72
2022-11-22T00:22:00.290Z,7.84
2022-11-22T00:23:00.259Z,7.78
2022-11-22T00:24:00.284Z,7.78
2022-11-22T00:25:00.403Z,7.74
2022-11-22T00:26:00.257Z,7.75
2022-11-22T00:27:00.232Z,7.77
2022-11-22T00:28:00.209Z,7.77
2022-11-22T00:29:00.196Z,7.75
2022-11-22T00:30:00.220Z,7.77
2022-11-22T00:31:00.178Z,7.74
2022-11-22T00:32:00.196Z,7.81
2022-11-22T00:33:00.157Z,7.79
2022-11-22T00:34:00.151Z,7.85
2022-11-22T00:35:00.195Z,7.84
2022-11-22T00:36:00.140Z,7.84
2022-11-22T00:37:00.128Z,7.79
2022-11-22T00:38:00.101Z,7.72
2022-11-22T00:39:00.094Z,7.90
2022-11-22T00:40:00.095Z,7.87
2022-11-22T00:41:00.079Z,7.90
2022-11-22T00:42:00.058Z,7.94
2022-11-22T00:43:00.065Z,7.87
2022-11-22T00:44:00.035Z,7.85
2022-11-22T07:32:07.639Z,6.66
2022-11-22T07:33:07.567Z,6.71
2022-11-22T07:34:07.558Z,6.61
2022-11-22T07:35:07.557Z,6.69
2022-11-22T07:36:07.538Z,6.71
2022-11-22T07:37:09.223Z,6.69
2022-11-22T07:38:07.515Z,6.72
2022-11-22T07:39:07.492Z,6.80
2022-11-22T07:40:07.506Z,6.76
2022-11-22T07:41:07.477Z,6.86
2022-11-22T07:42:07.467Z,6.94
2022-11-22T07:43:07.453Z,6.98
2022-11-22T07:44:07.440Z,7.01
2022-11-22T07:45:07.456Z,7.13
2022-11-22T07:46:07.424Z,7.08
2022-11-22T07:47:07.410Z,7.13
2022-11-22T07:48:07.421Z,7.34
2022-11-22T07:49:07.380Z,7.34
2022-11-22T07:50:07.399Z,7.24
2022-11-22T07:51:07.364Z,7.29
2022-11-22T07:52:07.366Z,7.34
2022-11-22T07:53:07.341Z,7.34
2022-11-22T07:54:07.327Z,7.29
2022-11-22T07:55:12.522Z,7.37
2022-11-22T07:56:08.310Z,7.26
2022-11-22T07:57:07.297Z,7.34
2022-11-22T07:58:07.292Z,7.40
2022-11-22T07:59:07.268Z,7.40
2022-11-22T08:00:07.276Z,7.35
2022-11-22T08:01:07.430Z,7.38
2022-11-22T08:02:07.334Z,7.29
2022-11-22T08:03:07.230Z,7.38
2022-11-22T08:04:07.343Z,7.32
2022-11-22T08:05:07.225Z,7.42
2022-11-22T08:06:07.196Z,7.31
2022-11-22T08:07:07.217Z,7.24
2022-11-22T08:08:07.178Z,7.41
2022-11-22T08:09:07.174Z,7.37
2022-11-22T08:10:07.172Z,7.40
2022-11-22T08:11:07.133Z,7.35
2022-11-22T08:12:07.130Z,7.44
2022-11-22T08:13:07.117Z,7.49
2022-11-22T08:14:07.116Z,7.45
2022-11-22T08:15:07.112Z,7.38
2022-11-22T08:16:07.084Z,7.32
2022-11-22T08:17:07.066Z,7.44
2022-11-22T08:18:07.072Z,7.44
2022-11-22T08:19:07.077Z,7.29
2022-11-22T08:20:07.175Z,7.26
2022-11-22T08:21:07.024Z,7.38
2022-11-22T08:22:07.019Z,7.38
2022-11-22T08:23:07.010Z,7.47
2022-11-22T08:24:07.001Z,7.59
2022-11-22T08:25:06.996Z,7.42
2022-11-22T08:26:06.975Z,7.49
2022-11-22T08:27:06.963Z,7.45
2022-11-22T08:28:06.949Z,7.49
2022-11-22T08:29:12.547Z,7.50
2022-11-22T08:30:07.937Z,7.58
2022-11-22T08:31:06.919Z,7.58
2022-11-22T08:32:06.900Z,7.56
2022-11-22T08:33:06.893Z,7.53
2022-11-22T08:34:06.886Z,7.72
2022-11-22T08:35:06.880Z,7.78
2022-11-22T08:36:06.983Z,7.77
2022-11-22T08:37:06.839Z,7.69
2022-11-22T08:38:06.844Z,7.82
2022-11-22T08:39:06.841Z,7.85
2022-11-22T08:40:06.825Z,7.85
2022-11-22T08:41:06.800Z,7.85
2022-11-22T08:42:06.797Z,7.79
2022-11-22T08:43:06.784Z,7.90
2022-11-22T08:44:06.790Z,7.90
2022-11-22T08:45:06.765Z,7.89
2022-11-22T08:46:06.744Z,8.03
2022-11-22T08:47:06.730Z,7.93
2022-11-22T08:48:06.719Z,8.03
2022-11-22T08:49:06.715Z,8.08
2022-11-22T08:50:06.721Z,8.04
2022-11-22T08:51:06.688Z,8.10
2022-11-22T08:52:06.792Z,8.03
2022-11-22T08:53:06.771Z,8.10
2022-11-22T08:54:06.663Z,7.99
2022-11-22T08:55:06.657Z,8.11
2022-11-22T08:56:06.640Z,8.11
2022-11-22T08:57:06.649Z,8.07
2022-11-22T08:58:06.612Z,8.12
2022-11-22T08:59:06.667Z,8.15
2022-11-22T09:00:06.638Z,8.08
2022-11-22T09:01:06.702Z,8.22
2022-11-22T09:02:06.573Z,8.14
2022-11-22T09:03:06.553Z,8.26
2022-11-22T09:04:06.548Z,8.22
2022-11-22T09:05:06.546Z,8.21
2022-11-22T09:08:22.980Z,8.20
2022-11-22T09:09:42.795Z,8.29
2022-11-22T09:10:07.563Z,8.26
2022-11-22T09:11:06.489Z,8.29
2022-11-22T09:12:06.450Z,8.44
2022-11-22T09:13:06.434Z,8.45
2022-11-22T09:14:06.427Z,8.47
2022-11-22T09:15:06.424Z,8.62
2022-11-22T09:16:06.433Z,8.57
2022-11-22T09:17:06.392Z,8.58
2022-11-22T09:18:06.385Z,8.69
2022-11-22T09:19:06.376Z,8.79
2022-11-22T09:20:06.375Z,8.83
2022-11-22T09:21:06.352Z,8.83
2022-11-22T09:22:06.345Z,8.84
2022-11-22T09:23:06.331Z,8.83
2022-11-22T09:24:06.433Z,8.86
2022-11-22T09:25:06.374Z,8.97
2022-11-22T09:26:06.294Z,8.99
2022-11-22T09:27:06.286Z,9.09
2022-11-22T09:28:06.279Z,9.21
2022-11-22T09:29:06.264Z,9.21
2022-11-22T09:30:06.264Z,9.24
2022-11-22T09:31:06.233Z,9.27
2022-11-22T09:32:06.265Z,9.24
2022-11-22T09:33:06.216Z,9.28
2022-11-22T09:34:06.211Z,9.32
2022-11-22T09:35:06.189Z,9.24
2022-11-22T09:36:06.200Z,9.27
2022-11-22T09:37:06.174Z,9.28
2022-11-22T09:38:06.160Z,9.42
2022-11-22T09:39:06.151Z,9.40
2022-11-22T09:40:06.262Z,9.43
2022-11-22T09:41:06.129Z,9.57
2022-11-22T09:42:06.127Z,9.49
2022-11-22T09:43:06.104Z,9.50
2022-11-22T09:44:06.092Z,9.43
2022-11-22T09:45:06.078Z,9.46
2022-11-22T09:46:06.082Z,9.42
2022-11-22T09:47:06.080Z,9.28
2022-11-22T09:48:09.668Z,9.34
2022-11-22T09:49:06.037Z,9.40
2022-11-22T09:50:06.058Z,9.38
2022-11-22T09:51:06.018Z,9.38
2022-11-22T09:52:06.010Z,9.32
2022-11-22T09:53:06.006Z,9.27
2022-11-22T09:54:05.988Z,9.25
2022-11-22T09:55:05.962Z,9.20
2022-11-22T09:56:06.074Z,9.10
2022-11-22T09:57:05.951Z,9.10
2022-11-22T09:58:05.957Z,9.13
2022-11-22T09:59:05.929Z,9.15
2022-11-22T10:00:05.913Z,9.12
2022-11-22T10:01:05.962Z,9.05
2022-11-22T10:02:17.510Z,9.04
2022-11-22T10:03:06.892Z,9.06
2022-11-22T10:04:05.865Z,9.04
2022-11-22T10:05:05.856Z,9.34
2022-11-22T10:06:05.850Z,9.31
2022-11-22T10:07:05.917Z,9.39
2022-11-22T10:08:05.845Z,9.46
2022-11-22T10:09:05.805Z,9.39
2022-11-22T10:10:05.837Z,9.24
2022-11-22T10:11:05.789Z,9.16
2022-11-22T10:12:05.895Z,9.21
2022-11-22T10:13:05.759Z,9.25
2022-11-22T10:14:05.763Z,9.25
2022-11-22T10:15:05.745Z,9.25
2022-11-22T10:16:05.733Z,9.30
2022-11-22T10:17:05.725Z,9.20
2022-11-22T10:18:05.717Z,9.20
2022-11-22T10:19:05.720Z,9.27
2022-11-22T10:20:05.692Z,9.32
2022-11-22T10:21:05.673Z,9.30
2022-11-22T10:22:05.662Z,9.34
2022-11-22T10:23:05.655Z,9.38
2022-11-22T10:24:05.663Z,9.49
2022-11-22T10:25:05.626Z,9.45
2022-11-22T10:26:05.626Z,9.56
2022-11-22T10:27:05.616Z,9.57
2022-11-22T10:28:05.710Z,9.60
2022-11-22T10:29:05.603Z,9.56
2022-11-22T10:30:05.587Z,9.58
2022-11-22T10:31:05.556Z,9.57
2022-11-22T10:32:05.551Z,9.73
2022-11-22T10:33:05.544Z,9.68
2022-11-22T10:34:05.552Z,9.73
2022-11-22T10:35:05.522Z,9.81
2022-11-22T10:36:05.512Z,9.82
2022-11-22T10:37:05.497Z,9.70
2022-11-22T10:38:05.489Z,9.71
2022-11-22T10:39:05.475Z,9.52
2022-11-22T10:40:05.476Z,9.60
2022-11-22T10:41:05.447Z,9.66
2022-11-22T10:42:05.446Z,9.64
2022-11-22T10:43:05.432Z,9.60
2022-11-22T10:44:05.545Z,9.60
2022-11-22T10:45:05.418Z,9.60
2022-11-22T10:46:05.401Z,9.52
2022-11-22T10:47:05.379Z,9.52
2022-11-22T10:48:05.372Z,9.67
2022-11-22T10:49:05.364Z,9.52
2022-11-22T10:50:05.374Z,9.48
2022-11-22T10:51:05.340Z,9.52
2022-11-22T10:52:05.341Z,9.48
2022-11-22T10:53:05.316Z,9.64
2022-11-22T10:54:05.305Z,9.68
2022-11-22T10:55:05.315Z,9.96
2022-11-22T10:56:05.299Z,9.94
2022-11-22T10:57:05.263Z,9.99
2022-11-22T10:58:05.266Z,10.15
2022-11-22T10:59:05.248Z,10.24
2022-11-22T11:00:05.360Z,10.30
2022-11-22T11:01:05.261Z,10.36
2022-11-22T11:02:05.214Z,10.47
2022-11-22T11:03:05.204Z,10.60
2022-11-22T11:04:05.200Z,10.66
2022-11-22T11:05:05.742Z,10.70
2022-11-22T11:06:22.621Z,10.42
2022-11-22T11:07:13.381Z,10.32
2022-11-22T11:08:36.863Z,10.32
2022-11-22T11:10:03.129Z,10.26
2022-11-22T11:10:19.433Z,10.18
2022-11-22T11:11:06.110Z,10.21
2022-11-22T11:12:05.122Z,10.18
2022-11-22T11:13:05.084Z,10.10
2022-11-22T11:14:05.091Z,10.10
2022-11-22T11:15:05.065Z,10.06
2022-11-22T11:16:05.174Z,10.12
2022-11-22T11:17:05.069Z,10.18
2022-11-22T11:18:05.032Z,10.36
2022-11-22T11:19:05.023Z,10.30
2022-11-22T11:20:05.010Z,10.47
2022-11-22T11:21:04.999Z,10.55
2022-11-22T11:22:04.994Z,10.55
2022-11-22T11:23:20.499Z,10.77
2022-11-22T11:24:05.974Z,10.78
2022-11-22T11:25:04.956Z,10.77
2022-11-22T11:26:04.944Z,10.65
2022-11-22T11:27:04.931Z,10.46
2022-11-22T11:28:04.949Z,10.40
2022-11-22T11:29:04.916Z,10.40
2022-11-22T11:30:04.896Z,10.17
2022-11-22T11:31:04.893Z,10.22
2022-11-22T11:32:04.901Z,10.52
2022-11-22T11:33:04.881Z,10.51
2022-11-22T11:34:04.852Z,10.34
2022-11-22T11:35:04.847Z,10.26
2022-11-22T11:36:04.835Z,10.18
2022-11-22T11:37:04.835Z,10.07
2022-11-22T11:38:04.801Z,10.07
2022-11-22T11:39:04.834Z,9.99
2022-11-22T11:40:04.783Z,9.96
2022-11-22T11:41:04.779Z,9.89
2022-11-22T11:42:04.767Z,9.99
2022-11-22T11:43:04.753Z,9.93
2022-11-22T11:44:04.761Z,9.85
2022-11-22T11:45:04.734Z,9.82
2022-11-22T11:46:04.741Z,9.91
2022-11-22T11:47:04.736Z,9.79
2022-11-22T11:48:04.805Z,9.91
2022-11-22T11:49:04.723Z,9.82
2022-11-22T11:50:04.744Z,9.86
2022-11-22T11:51:04.667Z,9.91
2022-11-22T11:52:04.652Z,9.85
2022-11-22T11:53:04.644Z,9.89
2022-11-22T11:54:04.657Z,9.85
2022-11-22T11:55:04.623Z,10.07
2022-11-22T11:56:04.602Z,10.33
2022-11-22T11:57:04.597Z,10.73
2022-11-22T11:58:04.589Z,10.78
2022-11-22T11:59:04.588Z,10.94
2022-11-22T12:00:04.562Z,11.02
2022-11-22T12:01:04.549Z,11.25
2022-11-22T12:02:04.610Z,11.43
2022-11-22T12:03:04.527Z,11.49
2022-11-22T12:04:04.623Z,11.56
2022-11-22T12:05:04.518Z,11.62
2022-11-22T12:06:04.521Z,11.53
2022-11-22T12:07:04.602Z,11.38
2022-11-22T12:08:04.473Z,11.28
2022-11-22T12:09:04.460Z,11.10
2022-11-22T12:10:04.463Z,11.01
2022-11-22T12:11:04.435Z,10.84
2022-11-22T12:12:04.453Z,10.62
2022-11-22T12:13:05.075Z,10.58
2022-11-22T12:14:20.623Z,10.56
2022-11-22T12:15:13.117Z,10.70
2022-11-22T12:16:05.376Z,10.59
2022-11-22T12:17:04.368Z,10.66
2022-11-22T12:18:04.360Z,10.58
2022-11-22T12:19:04.360Z,10.58
2022-11-22T12:20:04.475Z,10.44
2022-11-22T12:21:04.336Z,10.52
2022-11-22T12:22:04.315Z,10.51
2022-11-22T12:23:04.306Z,10.42
2022-11-22T12:24:34.465Z,10.36
2022-11-22T12:25:31.173Z,10.30
2022-11-22T12:26:05.270Z,10.37
2022-11-22T12:27:04.257Z,10.30
2022-11-22T12:28:04.239Z,10.25
2022-11-22T12:29:04.233Z,10.28
2022-11-22T12:30:04.226Z,10.21
2022-11-22T12:31:04.226Z,10.14
2022-11-22T12:32:04.195Z,10.06
2022-11-22T12:33:04.189Z,10.07
2022-11-22T12:34:04.173Z,10.14
2022-11-22T12:35:04.164Z,10.07
2022-11-22T12:36:04.200Z,9.91
2022-11-22T12:37:04.144Z,9.82
2022-11-22T12:38:04.162Z,9.88
2022-11-22T12:39:04.130Z,9.91
2022-11-22T12:40:04.111Z,9.83
2022-11-22T12:41:04.183Z,9.67
2022-11-22T12:42:04.143Z,9.79
2022-11-22T12:43:04.108Z,9.75
2022-11-22T12:44:04.061Z,9.78
2022-11-22T12:45:04.065Z,9.78
2022-11-22T12:46:04.179Z,9.75
2022-11-22T12:47:04.043Z,9.86
2022-11-22T12:48:04.018Z,9.81
2022-11-22T12:49:04.025Z,9.76
2022-11-22T12:50:03.992Z,9.81
2022-11-22T12:51:03.996Z,9.68
2022-11-22T12:52:04.108Z,9.78
2022-11-22T12:53:03.970Z,9.81
2022-11-22T12:54:03.951Z,9.82
2022-11-22T12:55:03.939Z,9.78
2022-11-22T12:56:03.936Z,9.75
2022-11-22T12:57:03.932Z,9.73
2022-11-22T12:58:03.908Z,9.81
2022-11-22T12:59:03.901Z,9.67
2022-11-22T13:00:03.879Z,9.71
2022-11-22T13:01:03.950Z,9.67
2022-11-22T13:02:03.880Z,9.67
2022-11-22T13:03:03.854Z,9.70
2022-11-22T13:04:03.842Z,9.58
2022-11-22T13:05:03.835Z,9.73
2022-11-22T13:06:03.819Z,9.57
2022-11-22T13:07:03.849Z,9.56
2022-11-22T13:08:03.923Z,9.53
2022-11-22T13:09:04.477Z,9.58
2022-11-22T13:10:03.814Z,9.64
2022-11-22T13:11:03.769Z,9.67
2022-11-22T13:12:03.808Z,9.49
2022-11-22T13:13:03.753Z,9.49
2022-11-22T13:14:03.735Z,9.60
2022-11-22T13:15:03.713Z,9.63
2022-11-22T13:16:03.705Z,9.60
2022-11-22T13:17:03.690Z,9.66
2022-11-22T13:18:03.690Z,9.67
2022-11-22T13:19:03.666Z,9.66
2022-11-22T13:20:03.653Z,9.64
2022-11-22T13:21:03.651Z,9.67
2022-11-22T13:22:03.632Z,9.76
2022-11-22T13:23:03.637Z,9.71
2022-11-22T13:24:03.759Z,9.76
2022-11-22T13:25:03.607Z,9.82
2022-11-22T13:26:03.592Z,9.81
2022-11-22T13:27:03.585Z,9.81
2022-11-22T13:28:03.591Z,9.82
2022-11-22T13:29:03.558Z,9.86
2022-11-22T13:30:03.552Z,9.85
2022-11-22T13:31:03.533Z,9.96
2022-11-22T13:32:03.523Z,10.00
2022-11-22T13:33:03.523Z,10.03
2022-11-22T13:34:03.507Z,10.15
2022-11-22T13:35:03.490Z,10.03
2022-11-22T13:36:03.481Z,10.14
2022-11-22T13:37:03.474Z,10.07
2022-11-22T13:38:03.453Z,10.10
2022-11-22T13:39:03.462Z,10.17
2022-11-22T13:40:03.558Z,10.17
2022-11-22T13:41:03.429Z,10.10
2022-11-22T13:42:03.481Z,10.18
2022-11-22T13:43:06.101Z,10.03
2022-11-22T13:44:04.390Z,10.10
2022-11-22T13:45:03.380Z,10.09
2022-11-22T13:46:03.367Z,10.10
2022-11-22T13:47:03.372Z,10.12
2022-11-22T13:48:03.355Z,10.18
2022-11-22T13:49:03.333Z,10.24
2022-11-22T13:50:03.335Z,10.18
2022-11-22T13:51:03.318Z,10.14
2022-11-22T13:52:03.319Z,10.26
2022-11-22T13:53:03.391Z,10.22
2022-11-22T13:54:03.335Z,10.18
2022-11-22T13:55:03.268Z,10.12
2022-11-22T13:56:03.279Z,10.18
2022-11-22T13:57:03.268Z,10.10
2022-11-22T13:58:03.226Z,10.03
2022-11-22T13:59:03.223Z,10.15
2022-11-22T14:00:03.205Z,10.12
2022-11-22T14:01:03.266Z,10.07
2022-11-22T14:02:03.190Z,9.99
2022-11-22T14:03:03.221Z,9.96
2022-11-22T14:04:03.165Z,9.99
2022-11-22T14:05:03.793Z,9.93
2022-11-22T14:06:03.147Z,9.85
2022-11-22T14:07:03.237Z,9.96
2022-11-22T14:08:03.122Z,9.83
2022-11-22T14:09:03.234Z,9.86
2022-11-22T14:10:03.094Z,9.88
2022-11-22T14:11:03.089Z,9.88
2022-11-22T14:12:03.221Z,9.85
2022-11-22T14:13:03.062Z,9.85
2022-11-22T14:14:03.050Z,9.82
2022-11-22T14:15:03.053Z,9.81
2022-11-22T14:16:03.024Z,9.82
2022-11-22T14:17:03.024Z,9.79
2022-11-22T14:18:03.000Z,9.83
2022-11-22T14:19:03.001Z,9.76
2022-11-22T14:20:02.979Z,9.82
2022-11-22T14:21:02.997Z,9.89
2022-11-22T14:22:02.953Z,9.70
2022-11-22T14:23:02.946Z,9.81
2022-11-22T14:24:02.934Z,9.76
2022-11-22T14:25:02.929Z,9.76
2022-11-22T14:26:02.911Z,9.76
2022-11-22T14:27:02.928Z,9.71
2022-11-22T14:28:03.018Z,9.82
2022-11-22T14:29:02.889Z,9.85
2022-11-22T14:30:02.878Z,9.75
2022-11-22T14:31:02.860Z,9.86
2022-11-22T14:32:02.848Z,9.82
2022-11-22T14:33:02.861Z,9.85
2022-11-22T14:34:02.824Z,9.86
2022-11-22T14:35:02.817Z,9.86
2022-11-22T14:36:02.806Z,9.83
2022-11-22T14:37:02.795Z,9.82
2022-11-22T14:38:02.790Z,9.79
2022-11-22T14:39:02.800Z,9.78
2022-11-22T14:40:02.756Z,9.78
2022-11-22T14:41:02.753Z,9.73
2022-11-22T14:42:02.739Z,9.82
2022-11-22T14:43:02.734Z,9.81
2022-11-22T14:44:03.459Z,9.78
2022-11-22T14:45:02.731Z,9.79
2022-11-22T14:46:02.693Z,9.76
2022-11-22T14:47:02.689Z,9.78
2022-11-22T14:48:02.664Z,9.78
2022-11-22T14:49:02.663Z,9.86
2022-11-22T14:50:02.640Z,9.78
2022-11-22T14:51:02.649Z,9.83
2022-11-22T14:52:02.624Z,9.76
2022-11-22T14:53:02.626Z,9.71
2022-11-22T14:54:02.600Z,9.79
2022-11-22T14:55:02.602Z,9.81
2022-11-22T14:56:02.573Z,9.76
2022-11-22T14:57:04.424Z,9.78
2022-11-22T14:58:02.565Z,9.76
2022-11-22T14:59:02.552Z,9.81
2022-11-22T15:00:02.647Z,9.83
2022-11-22T15:01:02.533Z,9.81
2022-11-22T15:02:02.566Z,9.82
2022-11-22T15:03:02.527Z,9.76
2022-11-22T15:09:10.678Z,9.88
2022-11-22T15:09:10.826Z,9.79
2022-11-22T15:09:12.368Z,9.75
2022-11-22T15:09:12.939Z,9.71
2022-11-22T15:09:15.085Z,9.82
2022-11-22T15:09:18.220Z,9.82
2022-11-22T15:10:03.740Z,9.83
2022-11-22T15:11:02.417Z,9.88
2022-11-22T15:12:02.394Z,9.82
2022-11-22T15:13:02.394Z,9.76
2022-11-22T15:14:02.401Z,9.78
2022-11-22T15:58:01.901Z,9.68
2022-11-22T15:59:01.876Z,9.67
2022-11-22T16:00:01.867Z,9.68
2022-11-22T16:01:19.903Z,9.67
2022-11-22T16:02:02.887Z,9.58
2022-11-22T16:03:01.868Z,9.61
2022-11-22T16:04:01.960Z,9.64
2022-11-22T16:06:05.813Z,9.67
2022-11-22T16:06:06.119Z,9.66
2022-11-22T16:07:02.816Z,9.64
2022-11-22T16:08:01.888Z,9.61
2022-11-22T16:09:01.766Z,9.52
2022-11-22T16:10:01.770Z,9.64
2022-11-22T16:11:01.740Z,9.63
2022-11-22T16:12:01.726Z,9.67
2022-11-22T16:13:01.716Z,9.60
2022-11-22T16:14:01.702Z,9.64
2022-11-22T16:15:01.689Z,9.66
2022-11-22T16:16:01.732Z,9.64
2022-11-22T16:17:01.672Z,9.49
2022-11-22T16:18:01.658Z,9.63
2022-11-22T16:19:01.645Z,9.71
2022-11-22T16:20:01.775Z,9.49
2022-11-22T16:21:01.653Z,9.60
2022-11-22T16:22:01.660Z,9.50
2022-11-22T16:23:01.597Z,9.61
2022-11-22T16:24:01.599Z,9.66
2022-11-22T16:25:04.060Z,9.64
2022-11-22T16:26:02.574Z,9.57
2022-11-22T16:27:01.572Z,9.61
2022-11-22T16:28:01.551Z,9.52
2022-11-22T16:29:01.536Z,9.56
2022-11-22T16:30:01.527Z,9.50
2022-11-22T16:31:01.507Z,9.56
2022-11-22T16:32:01.525Z,9.50
2022-11-22T16:33:01.484Z,9.52
2022-11-22T16:34:01.497Z,9.48
2022-11-22T16:35:22.073Z,9.52
2022-11-22T16:36:02.585Z,9.50
2022-11-22T16:37:01.475Z,9.46
2022-11-22T16:38:01.442Z,9.50
2022-11-22T16:39:01.418Z,9.53
2022-11-22T16:40:01.415Z,9.52
2022-11-22T16:41:01.401Z,9.49
2022-11-22T16:42:01.403Z,9.52
2022-11-22T16:43:05.412Z,9.49
2022-11-22T16:44:02.377Z,9.43
2022-11-22T16:45:04.283Z,9.53
2022-11-22T16:46:01.343Z,9.56
2022-11-22T16:47:01.346Z,9.49
2022-11-22T16:48:24.578Z,9.46
2022-11-22T16:49:02.311Z,9.52
2022-11-22T16:50:01.301Z,9.46
2022-11-22T16:51:01.288Z,9.50
2022-11-22T16:52:01.416Z,9.50
2022-11-22T16:53:02.865Z,9.53
2022-11-22T16:54:01.342Z,9.48
2022-11-22T16:55:01.247Z,9.56
2022-11-22T16:56:01.234Z,9.48
2022-11-22T16:57:01.226Z,9.48
2022-11-22T16:58:01.207Z,9.49
2022-11-22T16:59:01.201Z,9.52
2022-11-22T17:00:01.187Z,9.56
2022-11-22T17:01:01.247Z,9.46
2022-11-22T17:02:01.189Z,9.52
2022-11-22T17:03:01.144Z,9.48
2022-11-22T17:04:01.141Z,9.50
2022-11-22T17:05:01.132Z,9.49
2022-11-22T17:06:01.116Z,9.46
2022-11-22T17:07:01.118Z,9.45
2022-11-22T17:08:01.279Z,9.43
2022-11-22T17:09:01.082Z,9.49
2022-11-22T17:10:01.071Z,9.46
2022-11-22T17:11:01.062Z,9.46
2022-11-22T17:12:01.160Z,9.43
2022-11-22T17:13:01.040Z,9.45
2022-11-22T17:14:01.027Z,9.39
2022-11-22T17:15:01.017Z,9.40
2022-11-22T17:16:01.020Z,9.43
2022-11-22T17:17:01.044Z,9.48
2022-11-22T17:18:00.982Z,9.40
2022-11-22T17:19:00.965Z,9.48
2022-11-22T17:20:00.978Z,9.46
2022-11-22T17:21:00.952Z,9.40
2022-11-22T17:22:01.008Z,9.43
2022-11-22T17:23:00.929Z,9.46
2022-11-22T17:24:00.945Z,9.40
2022-11-22T17:25:00.909Z,9.46
2022-11-22T17:26:00.897Z,9.43
2022-11-22T17:27:00.891Z,9.45
2022-11-22T17:28:00.896Z,9.43
2022-11-22T17:29:00.859Z,9.46
2022-11-22T17:30:00.955Z,9.40
2022-11-22T17:31:00.830Z,9.46
2022-11-22T17:32:00.878Z,9.39
2022-11-22T17:33:00.809Z,9.40
2022-11-22T17:34:00.807Z,9.42
2022-11-22T17:35:00.784Z,9.38
2022-11-22T17:36:00.782Z,9.42
2022-11-22T17:37:00.770Z,9.39
2022-11-22T17:38:00.777Z,9.45
2022-11-22T17:39:00.747Z,9.49
2022-11-22T17:40:00.852Z,9.43
2022-11-22T17:41:00.720Z,9.38
2022-11-22T17:42:00.722Z,9.43
2022-11-22T17:43:00.714Z,9.46
2022-11-22T17:44:00.689Z,9.38
2022-11-22T17:45:00.671Z,9.40
2022-11-22T17:46:00.671Z,9.39
2022-11-22T17:47:00.650Z,9.31
2022-11-22T17:48:00.661Z,9.39
2022-11-22T17:49:00.642Z,9.31
2022-11-22T17:50:00.623Z,9.21
2022-11-22T17:51:00.614Z,9.20
2022-11-22T17:52:00.600Z,9.31
2022-11-22T17:53:00.878Z,9.28
2022-11-22T17:54:00.589Z,9.32
2022-11-22T17:55:05.033Z,9.18
2022-11-22T17:56:10.412Z,9.30
2022-11-22T17:57:01.569Z,9.27
2022-11-22T17:58:00.547Z,9.27
2022-11-22T17:59:00.516Z,9.28
2022-11-22T18:00:00.514Z,9.27
2022-11-22T18:01:00.516Z,9.30
2022-11-22T18:02:00.488Z,9.35
2022-11-22T18:03:06.740Z,9.31
2022-11-22T18:04:01.463Z,9.28
2022-11-22T18:05:00.449Z,9.35
2022-11-22T18:06:00.448Z,9.31
2022-11-22T18:07:00.426Z,9.34
2022-11-22T18:08:00.500Z,9.34
2022-11-22T18:09:00.404Z,9.38
2022-11-22T18:10:00.403Z,9.38
2022-11-22T18:11:00.382Z,9.40
2022-11-22T18:12:00.505Z,9.38
2022-11-22T18:13:20.241Z,9.35
2022-11-22T18:14:01.358Z,9.39
2022-11-22T18:15:00.336Z,9.40
2022-11-22T18:16:03.549Z,9.39
2022-11-22T18:17:00.320Z,9.39
2022-11-22T18:18:00.317Z,9.46
2022-11-22T18:19:00.298Z,9.30
2022-11-22T18:20:00.294Z,9.32
2022-11-22T18:21:00.270Z,9.28
2022-11-22T18:22:00.261Z,9.39
2022-11-22T18:23:00.258Z,9.25
2022-11-22T18:24:00.268Z,9.34
2022-11-22T18:25:00.223Z,9.24
2022-11-22T18:26:23.875Z,9.23
2022-11-22T18:27:01.208Z,9.34
2022-11-22T18:28:00.238Z,9.39
2022-11-22T18:29:35.596Z,9.39
2022-11-22T18:30:01.189Z,9.38
2022-11-22T18:31:00.156Z,9.42
2022-11-22T18:32:00.159Z,9.34
2022-11-22T18:33:00.155Z,9.42
2022-11-22T18:34:00.146Z,9.50
2022-11-22T18:35:00.118Z,9.42
2022-11-22T18:36:00.108Z,9.49
2022-11-22T18:37:02.982Z,9.32
2022-11-22T18:38:00.106Z,9.40
2022-11-22T18:39:00.096Z,9.45
2022-11-22T18:40:00.075Z,9.40
2022-11-22T18:41:00.067Z,9.50
2022-11-22T18:42:00.045Z,9.48
2022-11-22T18:43:00.072Z,9.57
2022-11-22T18:44:00.147Z,9.53
2022-11-22T18:45:00.003Z,9.52
2022-11-22T18:45:59.995Z,9.52
2022-11-22T18:46:59.989Z,9.48
2022-11-22T18:48:00.002Z,9.50
2022-11-22T18:49:00.003Z,9.49
2022-11-22T18:49:59.957Z,9.58
2022-11-22T18:50:59.941Z,9.52
2022-11-22T18:51:59.952Z,9.50
2022-11-22T18:52:59.907Z,9.52
2022-11-22T18:53:59.912Z,9.53
2022-11-22T18:54:59.898Z,9.50
2022-11-22T18:55:59.884Z,9.48
2022-11-22T18:56:59.868Z,9.56
2022-11-22T18:57:59.863Z,9.43
2022-11-22T18:58:59.854Z,9.58
2022-11-22T18:59:59.950Z,9.50
2022-11-22T19:00:59.885Z,9.50
2022-11-22T19:01:59.810Z,9.52
2022-11-22T19:02:59.801Z,9.57
2022-11-22T19:03:59.829Z,9.57
2022-11-22T19:04:59.781Z,9.64
2022-11-22T19:05:59.772Z,9.70
2022-11-22T19:06:59.753Z,9.61
2022-11-22T19:07:59.807Z,9.56
2022-11-22T19:08:59.730Z,9.61
2022-11-22T19:09:59.746Z,9.60
2022-11-22T19:10:59.704Z,9.58
2022-11-22T19:11:59.697Z,9.64
2022-11-22T19:12:59.689Z,9.68
2022-11-22T19:13:59.675Z,9.63
2022-11-22T19:14:59.686Z,9.75
2022-11-22T19:15:59.784Z,9.67
2022-11-22T19:16:59.650Z,9.71
2022-11-22T19:17:59.643Z,9.70
2022-11-22T19:18:59.626Z,9.64
2022-11-22T19:19:59.619Z,9.67
2022-11-22T19:20:59.610Z,9.71
2022-11-22T19:21:59.590Z,9.76
2022-11-22T19:23:00.381Z,9.81
2022-11-22T19:23:59.558Z,9.81
2022-11-22T19:24:59.576Z,9.68
2022-11-22T19:25:59.546Z,9.76
2022-11-22T19:26:59.543Z,9.68
2022-11-22T19:27:59.527Z,9.66
2022-11-22T19:28:59.503Z,9.75
2022-11-22T19:29:59.524Z,9.71
2022-11-22T19:30:59.485Z,9.85
2022-11-22T19:31:59.624Z,9.70
2022-11-22T19:32:59.463Z,9.76
2022-11-22T19:33:59.461Z,9.82
2022-11-22T19:34:59.442Z,9.85
2022-11-22T19:35:59.427Z,9.82
2022-11-22T19:36:59.428Z,9.78
2022-11-22T19:37:59.421Z,9.82
2022-11-22T19:38:59.401Z,9.85
2022-11-22T19:39:59.381Z,9.86
2022-11-22T19:40:59.365Z,9.94
2022-11-22T19:41:59.385Z,9.83
2022-11-22T19:42:59.342Z,9.75
2022-11-22T19:43:59.338Z,9.75
2022-11-22T19:44:59.351Z,9.78
2022-11-22T19:45:59.315Z,9.73
2022-11-22T19:46:59.318Z,9.83
2022-11-22T19:47:59.419Z,9.88
2022-11-22T19:48:59.283Z,9.78
2022-11-22T19:49:59.300Z,9.91
2022-11-22T19:50:59.262Z,9.71
2022-11-22T19:51:59.259Z,9.79
2022-11-22T19:52:59.231Z,9.83
2022-11-22T19:53:59.230Z,9.83
2022-11-22T19:54:59.215Z,9.82
2022-11-22T19:55:59.212Z,9.88
2022-11-22T19:56:59.186Z,9.85
2022-11-22T19:57:59.190Z,9.83
2022-11-22T19:58:59.176Z,9.86
2022-11-22T20:00:00.288Z,9.83
2022-11-22T20:00:59.266Z,9.68
2022-11-22T20:01:59.138Z,9.79
2022-11-22T20:02:59.171Z,9.79
2022-11-22T20:03:59.229Z,9.81
2022-11-22T20:04:59.109Z,9.81
2022-11-22T20:05:59.084Z,9.85
2022-11-22T20:06:59.086Z,9.76
2022-11-22T20:07:59.076Z,9.81
2022-11-22T20:08:59.059Z,9.81
2022-11-22T20:09:59.046Z,9.78
2022-11-22T20:10:59.040Z,9.75
2022-11-22T20:11:59.026Z,9.79
2022-11-22T20:12:59.021Z,9.75
2022-11-22T20:13:59.053Z,9.76
2022-11-22T20:14:58.989Z,9.81
2022-11-22T20:15:58.968Z,9.70
2022-11-22T20:16:58.980Z,9.76
2022-11-22T20:17:58.963Z,9.70
2022-11-22T20:18:58.963Z,9.73
2022-11-22T20:19:59.045Z,9.67
2022-11-22T20:20:58.918Z,9.60
2022-11-22T20:21:58.914Z,9.64
2022-11-22T20:22:58.917Z,9.68
2022-11-22T20:23:58.885Z,9.67
2022-11-22T20:24:58.874Z,9.68
2022-11-22T20:25:58.866Z,9.68
2022-11-22T20:26:58.851Z,9.68
2022-11-22T20:27:58.859Z,9.68
2022-11-22T20:28:58.839Z,9.66
2022-11-22T20:29:58.811Z,9.57
2022-11-22T20:30:58.984Z,9.56
2022-11-22T20:31:58.790Z,9.49
2022-11-22T20:32:58.795Z,9.48
2022-11-22T20:33:58.773Z,9.53
2022-11-22T20:34:58.769Z,9.53
2022-11-22T20:35:58.872Z,9.48
2022-11-22T20:36:58.739Z,9.46
2022-11-22T20:37:58.740Z,9.45
2022-11-22T20:38:58.722Z,9.49
2022-11-22T20:39:58.700Z,9.48
2022-11-22T20:40:58.702Z,9.42
2022-11-22T20:42:26.332Z,9.39
2022-11-22T20:42:59.797Z,9.40
2022-11-22T20:43:58.653Z,9.34
2022-11-22T20:44:58.656Z,9.24
2022-11-22T20:45:58.674Z,9.25